Time;durP1;ratioP1;P1;durP2;ratioP2;P2;SDS_P1;SDS_P2;PMS_P1;PMS_P2;Temp;Humidity;BMP_temperature;BMP_pressure;BME280_temperature;BME280_humidity;BME280_pressure;Samples;Min_cycle;Max_cycle;Signal;HPM_P1;HPM_P2
2023/06/13 00:02:00;;;;;;;3.53;3.10;;;15.60;52.40;;;-147.95;100.00;61948.03;5020748;28;20462;-71
2023/06/13 00:04:30;;;;;;;4.30;3.90;;;15.60;52.40;;;-147.95;100.00;61948.03;5027748;28;21073;-70
2023/06/13 00:06:58;;;;;;;4.43;3.60;;;15.60;52.40;;;-147.95;100.00;61948.03;5027832;28;20537;-72
2023/06/13 00:09:28;;;;;;;4.50;4.00;;;15.60;52.50;;;-147.95;100.00;61948.03;5029783;28;20468;-72
2023/06/13 00:11:56;;;;;;;3.83;3.30;;;15.60;52.60;;;-147.95;100.00;61948.03;5028185;28;20799;-72
2023/06/13 00:14:24;;;;;;;5.03;4.53;;;15.60;52.70;;;-147.95;100.00;61948.03;5029097;28;20522;-71
2023/06/13 00:16:52;;;;;;;4.03;3.73;;;15.60;52.80;;;-147.95;100.00;61948.03;5026345;28;20767;-71
2023/06/13 00:19:19;;;;;;;4.20;3.80;;;15.50;52.90;;;-147.95;100.00;61948.03;5011410;28;20896;-72
2023/06/13 00:21:47;;;;;;;4.40;3.93;;;15.50;53.00;;;-147.95;100.00;61948.03;5027036;28;20811;-70
2023/06/13 00:24:14;;;;;;;4.00;3.70;;;15.50;53.10;;;-147.95;100.00;61948.03;5027210;28;20470;-71
2023/06/13 00:26:43;;;;;;;4.50;4.10;;;15.40;53.10;;;-147.95;100.00;61948.03;5027510;28;20460;-72
2023/06/13 00:29:10;;;;;;;6.50;3.80;;;15.40;53.50;;;-147.95;100.00;61948.03;5028202;28;20457;-71
2023/06/13 00:31:37;;;;;;;5.20;3.40;;;15.40;53.30;;;-147.95;100.00;61948.03;5010159;28;20912;-71
2023/06/13 00:34:04;;;;;;;4.60;3.23;;;15.40;53.50;;;-147.95;100.00;61948.03;5029020;28;20454;-71
2023/06/13 00:36:33;;;;;;;4.00;3.20;;;15.30;53.50;;;-147.95;100.00;61948.03;5026492;28;20469;-72
2023/06/13 00:39:01;;;;;;;4.60;4.20;;;15.30;53.60;;;-147.95;100.00;61948.03;5028382;28;20454;-70
2023/06/13 00:41:31;;;;;;;3.70;3.17;;;15.30;53.70;;;-147.95;100.00;61948.03;5028011;28;20499;-71
2023/06/13 00:44:00;;;;;;;5.83;4.37;;;15.20;53.80;;;-147.95;100.00;61948.03;5019733;28;20482;-72
2023/06/13 00:46:34;;;;;;;4.47;4.07;;;15.20;54.20;;;-147.95;100.00;61948.03;5026590;28;20505;-71
2023/06/13 00:49:02;;;;;;;4.27;3.87;;;15.20;54.10;;;-147.95;100.00;61948.03;5002870;28;20872;-72
2023/06/13 00:51:31;;;;;;;4.10;3.50;;;15.10;54.10;;;-147.95;100.00;61948.03;5009811;28;20945;-72
2023/06/13 00:54:01;;;;;;;5.20;3.80;;;15.10;54.30;;;-147.95;100.00;61948.03;5020525;28;20477;-71
2023/06/13 00:56:30;;;;;;;4.23;3.00;;;15.00;54.40;;;-147.95;100.00;61948.03;5027626;28;20520;-71
2023/06/13 00:58:59;;;;;;;5.53;3.73;;;15.00;54.70;;;-147.95;100.00;61948.03;5027657;28;20453;-71
2023/06/13 01:01:27;;;;;;;3.97;3.67;;;15.00;54.80;;;-147.95;100.00;61948.03;5027500;28;20512;-71
2023/06/13 01:03:55;;;;;;;4.73;3.70;;;14.90;54.80;;;-147.95;100.00;61948.03;5010214;28;20509;-71
2023/06/13 01:06:25;;;;;;;3.90;3.30;;;14.90;55.10;;;-147.95;100.00;61948.03;5011289;28;20457;-71
2023/06/13 01:08:58;;;;;;;4.73;3.90;;;14.80;55.10;;;-147.95;100.00;61948.03;5013066;28;20549;-70
2023/06/13 01:11:34;;;;;;;2.97;2.70;;;14.80;55.30;;;-147.95;100.00;61948.03;5029278;28;20452;-70
2023/06/13 01:14:09;;;;;;;4.40;3.73;;;14.70;55.40;;;-147.95;100.00;61948.03;5024893;28;20454;-70
2023/06/13 01:16:45;;;;;;;4.27;3.50;;;14.70;55.50;;;-147.95;100.00;61948.03;5029277;28;20543;-71
2023/06/13 01:19:28;;;;;;;3.77;3.20;;;14.70;55.70;;;-147.95;100.00;61948.03;5027415;28;20523;-70
2023/06/13 01:21:57;;;;;;;4.30;3.60;;;14.70;55.80;;;-147.95;100.00;61948.03;5023930;28;20495;-71
2023/06/13 01:24:38;;;;;;;4.97;3.77;;;14.60;55.90;;;-147.95;100.00;61948.03;5023755;28;20488;-70
2023/06/13 01:27:08;;;;;;;4.43;3.77;;;14.60;56.10;;;-147.95;100.00;61948.03;5008701;28;20474;-72
2023/06/13 01:29:36;;;;;;;3.60;3.30;;;14.60;56.30;;;-147.95;100.00;61948.03;5027628;28;20946;-71
2023/06/13 01:32:06;;;;;;;4.50;3.77;;;14.50;56.40;;;-147.95;100.00;61948.03;5009691;28;20516;-71
2023/06/13 01:34:34;;;;;;;4.80;3.63;;;14.50;56.60;;;-147.95;100.00;61948.03;5027781;28;20458;-70
2023/06/13 01:37:01;;;;;;;4.20;3.80;;;14.50;56.80;;;-147.95;100.00;61948.03;5008331;28;20468;-71
2023/06/13 01:39:28;;;;;;;3.73;3.43;;;14.40;56.90;;;-147.95;100.00;61948.03;5027609;28;20465;-72
2023/06/13 01:41:56;;;;;;;4.20;3.67;;;14.30;57.20;;;-147.95;100.00;61948.03;5026568;28;20457;-71
2023/06/13 01:44:24;;;;;;;3.47;3.17;;;14.20;57.60;;;-147.95;100.00;61948.03;5027414;28;20478;-71
2023/06/13 01:47:01;;;;;;;3.97;3.43;;;14.10;57.80;;;-147.95;100.00;61948.03;5025831;28;21003;-71
2023/06/13 01:49:41;;;;;;;4.10;3.80;;;14.10;58.10;;;-147.95;100.00;61948.03;5027421;28;21031;-70
2023/06/13 01:52:19;;;;;;;5.50;3.77;;;14.10;58.20;;;-147.95;100.00;61948.03;5019965;28;20468;-71
2023/06/13 01:54:53;;;;;;;3.93;3.53;;;14.10;58.30;;;-147.95;100.00;61948.03;5027368;28;20461;-71
2023/06/13 01:57:27;;;;;;;4.50;3.93;;;14.10;58.60;;;-147.95;100.00;61948.03;5008311;28;20454;-71
2023/06/13 01:59:57;;;;;;;6.10;3.67;;;14.00;58.80;;;-147.95;100.00;61948.03;5027730;28;20461;-71
2023/06/13 02:02:25;;;;;;;3.93;3.30;;;14.00;59.10;;;-147.95;100.00;61948.03;5025569;28;20458;-71
2023/06/13 02:04:52;;;;;;;3.40;3.20;;;13.90;59.30;;;-147.95;100.00;61948.03;5025693;28;20489;-71
2023/06/13 02:07:20;;;;;;;3.00;2.80;;;13.80;59.60;;;-147.95;100.00;61948.03;5026208;28;20457;-70
2023/06/13 02:09:47;;;;;;;5.43;3.83;;;13.80;59.80;;;-147.95;100.00;61948.03;5027025;28;21033;-71
2023/06/13 02:12:15;;;;;;;5.20;3.47;;;13.70;60.20;;;-147.95;100.00;61948.03;5024777;28;20557;-71
2023/06/13 02:14:42;;;;;;;4.30;3.70;;;13.70;60.40;;;-147.95;100.00;61948.03;5027049;28;20456;-72
2023/06/13 02:17:11;;;;;;;4.50;3.77;;;13.70;60.70;;;-147.95;100.00;61948.03;5025570;28;20468;-73
2023/06/13 02:19:39;;;;;;;6.47;4.57;;;13.60;61.00;;;-147.95;100.00;61948.03;5001909;28;20478;-72
2023/06/13 02:22:07;;;;;;;4.03;3.73;;;13.50;61.30;;;-147.95;100.00;61948.03;5026246;28;20775;-71
2023/06/13 02:24:35;;;;;;;3.60;3.30;;;13.30;62.40;;;-147.95;100.00;61948.03;5026774;28;20586;-71
2023/06/13 02:27:03;;;;;;;4.97;3.90;;;13.30;62.80;;;-147.95;100.00;61948.03;5025354;28;20444;-72
2023/06/13 02:29:31;;;;;;;5.73;3.77;;;13.30;63.50;;;-147.95;100.00;61948.03;5027253;28;20478;-71
2023/06/13 02:31:58;;;;;;;3.63;3.33;;;13.20;64.10;;;-147.95;100.00;61948.03;5008183;28;20487;-73
2023/06/13 02:34:26;;;;;;;3.90;3.60;;;13.00;65.30;;;-147.95;100.00;61948.03;5025584;28;20447;-72
2023/06/13 02:36:54;;;;;;;3.63;3.33;;;13.10;65.40;;;-147.95;100.00;61948.03;5020135;28;20488;-71
2023/06/13 02:39:22;;;;;;;5.30;3.93;;;13.10;65.50;;;-147.95;100.00;61948.03;5026603;28;20471;-71
2023/06/13 02:41:49;;;;;;;4.03;3.63;;;13.10;65.60;;;-147.95;100.00;61948.03;5022520;28;20551;-71
2023/06/13 02:44:16;;;;;;;6.37;4.33;;;13.10;65.60;;;-147.95;100.00;61948.03;5005665;28;20476;-71
2023/06/13 02:46:44;;;;;;;4.07;3.50;;;13.10;66.50;;;-147.95;100.00;61948.03;5023670;28;20464;-71
2023/06/13 02:49:12;;;;;;;6.33;3.93;;;13.00;66.40;;;-147.95;100.00;61948.03;5008305;28;20496;-72
2023/06/13 02:51:41;;;;;;;3.73;3.40;;;13.00;67.10;;;-147.95;100.00;61948.03;5025802;28;20861;-72
2023/06/13 02:54:08;;;;;;;4.80;3.40;;;13.00;67.30;;;-147.95;100.00;61948.03;5026694;28;20458;-71
2023/06/13 02:56:36;;;;;;;4.83;4.07;;;13.00;67.40;;;-147.95;100.00;61948.03;5024310;28;20545;-71
2023/06/13 02:59:03;;;;;;;4.60;3.77;;;13.10;67.30;;;-147.95;100.00;61948.03;5026152;28;20556;-70
2023/06/13 03:01:31;;;;;;;4.50;3.73;;;13.10;67.10;;;-147.95;100.00;61948.03;5008604;28;20470;-70
2023/06/13 03:03:58;;;;;;;3.93;3.57;;;13.00;67.40;;;-147.95;100.00;61948.03;5026229;28;20470;-70
2023/06/13 03:06:26;;;;;;;5.53;3.97;;;13.00;67.30;;;-147.95;100.00;61948.03;5024709;28;20481;-72
2023/06/13 03:08:58;;;;;;;4.00;3.70;;;13.10;67.40;;;-147.95;100.00;61948.03;5011948;28;20475;-71
2023/06/13 03:11:25;;;;;;;4.43;4.00;;;13.00;67.80;;;-147.95;100.00;61948.03;5011626;28;20463;-72
2023/06/13 03:13:52;;;;;;;5.93;4.57;;;13.00;67.60;;;-147.95;100.00;61948.03;5028455;28;20956;-71
2023/06/13 03:16:21;;;;;;;4.50;4.10;;;13.10;67.50;;;-147.95;100.00;61948.03;5010779;28;20964;-71
2023/06/13 03:18:50;;;;;;;4.70;4.23;;;13.10;67.30;;;-147.95;100.00;61948.03;5028686;28;20459;-70
2023/06/13 03:21:17;;;;;;;4.63;3.60;;;13.10;67.60;;;-147.95;100.00;61948.03;5029681;28;20460;-71
2023/06/13 03:23:44;;;;;;;6.00;3.80;;;13.10;67.60;;;-147.95;100.00;61948.03;5028639;28;20971;-71
2023/06/13 03:26:13;;;;;;;4.57;3.90;;;13.00;67.80;;;-147.95;100.00;61948.03;5029319;28;20512;-72
2023/06/13 03:28:41;;;;;;;4.13;3.73;;;13.00;67.70;;;-147.95;100.00;61948.03;5011769;28;20551;-71
2023/06/13 03:31:08;;;;;;;4.10;3.50;;;13.10;68.10;;;-147.95;100.00;61948.03;5029489;28;20487;-70
2023/06/13 03:33:36;;;;;;;5.70;3.40;;;13.10;67.70;;;-147.95;100.00;61948.03;5029813;28;20964;-71
2023/06/13 03:36:04;;;;;;;5.00;3.90;;;13.10;67.40;;;-147.95;100.00;61948.03;5028972;28;20460;-71
2023/06/13 03:38:32;;;;;;;5.03;4.00;;;13.20;67.20;;;-147.95;100.00;61948.03;5011719;28;20883;-71
2023/06/13 03:40:59;;;;;;;4.47;3.80;;;13.20;67.20;;;-147.95;100.00;61948.03;5029411;28;21022;-70
2023/06/13 03:43:27;;;;;;;4.40;4.00;;;13.30;67.00;;;-147.95;100.00;61948.03;5012577;28;20563;-71
2023/06/13 03:45:56;;;;;;;4.97;4.47;;;13.30;66.80;;;-147.95;100.00;61948.03;5028985;28;20515;-70
2023/06/13 03:48:23;;;;;;;4.67;3.90;;;13.30;67.20;;;-147.95;100.00;61948.03;5011395;28;20470;-70
2023/06/13 03:50:51;;;;;;;4.97;4.10;;;13.30;66.80;;;-147.95;100.00;61948.03;5028789;28;20475;-70
2023/06/13 03:53:18;;;;;;;3.97;3.67;;;13.40;66.50;;;-147.95;100.00;61948.03;5029744;28;20460;-71
2023/06/13 03:55:45;;;;;;;5.00;4.07;;;13.40;66.60;;;-147.95;100.00;61948.03;5028938;28;20456;-72
2023/06/13 03:58:14;;;;;;;4.03;3.63;;;13.40;66.30;;;-147.95;100.00;61948.03;5028978;28;20491;-70
2023/06/13 04:00:44;;;;;;;5.47;4.17;;;13.50;66.50;;;-147.95;100.00;61948.03;5028722;28;20498;-70
2023/06/13 04:03:11;;;;;;;4.30;3.90;;;13.50;66.30;;;-147.95;100.00;61948.03;5029632;28;20471;-72
2023/06/13 04:05:38;;;;;;;4.40;4.00;;;13.60;66.00;;;-147.95;100.00;61948.03;5027041;28;20475;-70
2023/06/13 04:08:07;;;;;;;4.23;3.83;;;14.10;65.60;;;-147.95;100.00;61948.03;5010734;28;20538;-71
2023/06/13 04:10:35;;;;;;;4.77;4.07;;;14.80;63.40;;;-147.95;100.00;61948.03;5007630;28;20466;-72
2023/06/13 04:13:03;;;;;;;9.27;4.33;;;15.50;61.60;;;-147.95;100.00;61948.03;5011424;28;20467;-72
2023/06/13 04:15:30;;;;;;;4.00;3.70;;;16.10;60.00;;;-147.95;100.00;61948.03;5027239;28;20461;-72
2023/06/13 04:17:59;;;;;;;5.10;4.60;;;16.40;59.00;;;-147.95;100.00;61948.03;5009803;28;20520;-72
2023/06/13 04:20:27;;;;;;;4.80;4.00;;;16.80;57.70;;;-147.95;100.00;61948.03;5027158;28;20469;-72
2023/06/13 04:22:55;;;;;;;3.80;3.40;;;16.90;57.10;;;-147.95;100.00;61948.03;5029380;28;20536;-72
2023/06/13 04:25:22;;;;;;;10.60;3.60;;;17.20;56.50;;;-147.95;100.00;61948.03;5028183;28;20478;-72
2023/06/13 04:27:49;;;;;;;4.97;4.17;;;17.40;55.60;;;-147.95;100.00;61948.03;5027123;28;20468;-72
2023/06/13 04:30:17;;;;;;;4.80;4.03;;;17.40;55.30;;;-147.95;100.00;61948.03;5028360;28;20466;-72
2023/06/13 04:32:45;;;;;;;4.20;3.70;;;17.50;55.10;;;-147.95;100.00;61948.03;5028916;28;20941;-71
2023/06/13 04:35:17;;;;;;;3.90;3.60;;;17.80;54.40;;;-147.95;100.00;61948.03;5028047;28;20958;-71
2023/06/13 04:37:46;;;;;;;5.50;4.20;;;18.00;54.30;;;-147.95;100.00;61948.03;4994082;28;20465;-71
2023/06/13 04:40:13;;;;;;;5.00;4.13;;;18.20;53.80;;;-147.95;100.00;61948.03;5026685;28;20494;-71
2023/06/13 04:42:47;;;;;;;4.30;3.90;;;18.30;53.30;;;-147.95;100.00;61948.03;5010823;28;20461;-72
2023/06/13 04:45:15;;;;;;;7.40;4.53;;;18.40;53.10;;;-147.95;100.00;61948.03;5026514;28;20457;-71
2023/06/13 04:47:47;;;;;;;3.97;3.63;;;18.40;52.70;;;-147.95;100.00;61948.03;5027591;28;20557;-71
2023/06/13 04:50:16;;;;;;;4.63;4.23;;;18.50;52.40;;;-147.95;100.00;61948.03;5010136;28;20458;-71
2023/06/13 04:52:43;;;;;;;4.57;3.60;;;18.50;52.40;;;-147.95;100.00;61948.03;5028587;28;20531;-71
2023/06/13 04:55:11;;;;;;;4.13;3.63;;;18.70;52.40;;;-147.95;100.00;61948.03;5028118;28;20533;-71
2023/06/13 04:57:38;;;;;;;4.47;4.10;;;18.90;51.70;;;-147.95;100.00;61948.03;5010656;28;20516;-72
2023/06/13 05:00:10;;;;;;;4.33;3.93;;;19.40;51.60;;;-147.95;100.00;61948.03;5026885;28;20493;-71
2023/06/13 05:02:41;;;;;;;4.47;3.70;;;19.80;51.30;;;-147.95;100.00;61948.03;5029210;28;20462;-72
2023/06/13 05:05:08;;;;;;;4.53;4.13;;;20.40;50.90;;;-147.95;100.00;61948.03;5030294;28;20478;-70
2023/06/13 05:07:39;;;;;;;3.30;3.10;;;20.30;50.10;;;-147.95;100.00;61948.03;5025845;28;20462;-71
2023/06/13 05:10:08;;;;;;;4.30;3.90;;;20.60;49.80;;;-147.95;100.00;61948.03;5028086;28;20463;-71
2023/06/13 05:12:35;;;;;;;4.00;3.70;;;20.30;49.80;;;-147.95;100.00;61948.03;5030938;28;20553;-71
2023/06/13 05:15:03;;;;;;;4.37;3.90;;;20.40;49.80;;;-147.95;100.00;61948.03;5009878;28;20462;-70
2023/06/13 05:17:30;;;;;;;3.77;3.47;;;20.20;49.60;;;-147.95;100.00;61948.03;5027623;28;21008;-70
2023/06/13 05:19:57;;;;;;;4.93;4.53;;;20.30;49.50;;;-147.95;100.00;61948.03;5026763;28;20455;-70
2023/06/13 05:22:24;;;;;;;4.47;4.07;;;20.40;49.20;;;-147.95;100.00;61948.03;5027464;28;20973;-71
2023/06/13 05:24:53;;;;;;;4.30;3.90;;;20.50;49.50;;;-147.95;100.00;61948.03;5028265;28;20454;-72
2023/06/13 05:27:20;;;;;;;4.53;4.13;;;21.00;49.30;;;-147.95;100.00;61948.03;5027289;28;20938;-72
2023/06/13 05:29:47;;;;;;;4.20;3.90;;;20.90;48.80;;;-147.95;100.00;61948.03;5027836;28;20458;-71
2023/06/13 05:32:15;;;;;;;4.30;3.90;;;21.00;48.60;;;-147.95;100.00;61948.03;5031491;28;20973;-72
2023/06/13 05:34:43;;;;;;;4.30;3.90;;;21.00;48.20;;;-147.95;100.00;61948.03;5033611;28;20513;-71
2023/06/13 05:37:10;;;;;;;4.13;3.73;;;21.00;48.40;;;-147.95;100.00;61948.03;5030933;28;20446;-71
2023/06/13 05:39:38;;;;;;;6.87;4.30;;;21.10;48.20;;;-147.95;100.00;61948.03;5030515;28;20481;-72
2023/06/13 05:42:08;;;;;;;4.10;3.70;;;21.30;48.30;;;-147.95;100.00;61948.03;5031525;28;20459;-71
2023/06/13 05:44:35;;;;;;;3.97;3.17;;;21.40;48.10;;;-147.95;100.00;61948.03;5013806;28;20470;-71
2023/06/13 05:47:04;;;;;;;4.90;4.27;;;21.50;47.20;;;-147.95;100.00;61948.03;5029989;28;20478;-72
2023/06/13 05:49:31;;;;;;;5.00;4.60;;;21.20;47.20;;;-147.95;100.00;61948.03;5030240;28;20459;-71
2023/06/13 05:51:58;;;;;;;3.97;3.60;;;21.20;47.10;;;-147.95;100.00;61948.03;5027096;28;20499;-73
2023/06/13 05:54:25;;;;;;;4.03;3.63;;;22.00;47.30;;;-147.95;100.00;61948.03;5028223;28;20509;-72
2023/06/13 05:56:52;;;;;;;4.73;4.33;;;22.50;46.70;;;-147.95;100.00;61948.03;5026163;28;20517;-72
2023/06/13 05:59:21;;;;;;;4.20;3.83;;;22.40;46.30;;;-147.95;100.00;61948.03;5025855;28;21041;-72
2023/06/13 06:01:49;;;;;;;5.20;3.97;;;22.40;46.60;;;-147.95;100.00;61948.03;5026939;28;20450;-73
2023/06/13 06:04:17;;;;;;;3.57;3.27;;;23.00;46.40;;;-147.95;100.00;61948.03;5027006;28;20460;-73
2023/06/13 06:06:44;;;;;;;4.00;3.70;;;23.00;45.40;;;-147.95;100.00;61948.03;5008898;28;20858;-76
2023/06/13 06:09:11;;;;;;;3.70;3.40;;;23.20;46.00;;;-147.95;100.00;61948.03;5009376;28;20460;-73
2023/06/13 06:11:39;;;;;;;4.10;3.70;;;23.90;46.00;;;-147.95;100.00;61948.03;5008838;28;20459;-74
2023/06/13 06:14:06;;;;;;;4.37;3.67;;;23.60;45.60;;;-147.95;100.00;61948.03;5009783;28;20874;-74
2023/06/13 06:16:35;;;;;;;3.30;3.00;;;23.40;45.10;;;-147.95;100.00;61948.03;5027140;28;20466;-76
2023/06/13 06:19:02;;;;;;;3.50;3.20;;;23.80;45.10;;;-147.95;100.00;61948.03;5017893;28;20953;-74
2023/06/13 06:21:29;;;;;;;3.67;3.37;;;24.00;45.20;;;-147.95;100.00;61948.03;5027341;28;20459;-76
2023/06/13 06:23:58;;;;;;;3.77;3.47;;;24.40;44.70;;;-147.95;100.00;61948.03;5027597;28;20555;-75
2023/06/13 06:26:26;;;;;;;5.50;3.60;;;25.00;43.90;;;-147.95;100.00;61948.03;5026752;28;20487;-74
2023/06/13 06:28:54;;;;;;;4.33;3.30;;;25.00;44.00;;;-147.95;100.00;61948.03;5026011;28;20599;-76
2023/06/13 06:31:22;;;;;;;3.63;3.33;;;24.60;43.80;;;-147.95;100.00;61948.03;5009177;28;20519;-76
2023/06/13 06:33:50;;;;;;;3.87;3.57;;;23.60;44.10;;;-147.95;100.00;61948.03;5027117;28;20459;-74
2023/06/13 06:36:19;;;;;;;3.80;3.47;;;22.20;44.00;;;-147.95;100.00;61948.03;5008016;28;20507;-75
2023/06/13 06:38:49;;;;;;;2.97;2.73;;;21.40;45.10;;;-147.95;100.00;61948.03;5011788;28;20513;-74
2023/06/13 06:41:17;;;;;;;2.97;2.63;;;20.50;45.10;;;-147.95;100.00;61948.03;5024991;28;20449;-73
2023/06/13 06:43:44;;;;;;;4.00;3.17;;;19.80;46.10;;;-147.95;100.00;61948.03;5029663;28;20455;-73
2023/06/13 06:46:11;;;;;;;3.63;3.33;;;19.40;46.50;;;-147.95;100.00;61948.03;5028325;28;20478;-74
2023/06/13 06:48:40;;;;;;;3.00;2.80;;;19.40;46.30;;;-147.95;100.00;61948.03;5029463;28;20462;-74
2023/06/13 06:51:08;;;;;;;4.33;3.20;;;19.30;46.30;;;-147.95;100.00;61948.03;5012747;28;20473;-75
2023/06/13 06:53:35;;;;;;;4.10;3.70;;;19.30;46.20;;;-147.95;100.00;61948.03;5031236;28;20466;-78
2023/06/13 06:56:03;;;;;;;4.43;3.10;;;19.20;46.30;;;-147.95;100.00;61948.03;5030102;28;20446;-76
2023/06/13 06:58:31;;;;;;;4.80;3.53;;;19.30;46.60;;;-147.95;100.00;61948.03;5020947;28;20451;-74
2023/06/13 07:00:58;;;;;;;3.27;3.00;;;19.20;45.90;;;-147.95;100.00;61948.03;5029571;28;20484;-74
2023/06/13 07:03:25;;;;;;;3.67;3.37;;;19.30;45.10;;;-147.95;100.00;61948.03;5031236;28;20450;-75
2023/06/13 07:05:52;;;;;;;4.40;3.20;;;19.40;45.40;;;-147.95;100.00;61948.03;5030016;28;20536;-75
2023/06/13 07:08:21;;;;;;;4.33;3.40;;;19.60;46.10;;;-147.95;100.00;61948.03;5030287;28;20473;-76
2023/06/13 07:10:48;;;;;;;3.13;2.87;;;19.60;45.90;;;-147.95;100.00;61948.03;5020451;28;20546;-74
2023/06/13 07:13:16;;;;;;;3.83;3.50;;;19.50;45.20;;;-147.95;100.00;61948.03;5029017;28;20465;-75
2023/06/13 07:15:43;;;;;;;3.60;3.30;;;19.70;46.00;;;-147.95;100.00;61948.03;5011844;28;20454;-73
2023/06/13 07:18:10;;;;;;;3.20;2.90;;;19.80;45.80;;;-147.95;100.00;61948.03;5030361;28;20958;-74
2023/06/13 07:20:38;;;;;;;3.13;2.83;;;19.70;45.40;;;-147.95;100.00;61948.03;5028359;28;21008;-74
2023/06/13 07:23:06;;;;;;;3.53;2.93;;;19.40;44.00;;;-147.95;100.00;61948.03;5012518;28;20517;-73
2023/06/13 07:25:35;;;;;;;3.97;3.13;;;19.40;44.70;;;-147.95;100.00;61948.03;5028353;28;20469;-74
2023/06/13 07:28:04;;;;;;;3.63;3.10;;;19.70;44.80;;;-147.95;100.00;61948.03;5004468;28;20457;-74
2023/06/13 07:30:33;;;;;;;3.73;2.90;;;19.80;43.90;;;-147.95;100.00;61948.03;5011621;28;20448;-74
2023/06/13 07:33:00;;;;;;;3.70;3.17;;;19.90;44.50;;;-147.95;100.00;61948.03;5020286;28;20470;-74
2023/06/13 07:35:27;;;;;;;3.77;3.47;;;20.10;44.20;;;-147.95;100.00;61948.03;5014297;28;20454;-75
2023/06/13 07:37:55;;;;;;;4.00;3.40;;;20.10;44.40;;;-147.95;100.00;61948.03;5036373;28;20814;-73
2023/06/13 07:40:24;;;;;;;4.30;3.77;;;20.00;44.10;;;-147.95;100.00;61948.03;5040404;28;20462;-74
2023/06/13 07:42:53;;;;;;;3.30;3.00;;;19.90;44.00;;;-147.95;100.00;61948.03;5043223;28;20537;-74
2023/06/13 07:45:20;;;;;;;5.03;3.30;;;20.00;44.30;;;-147.95;100.00;61948.03;5032314;28;20572;-74
2023/06/13 07:47:47;;;;;;;3.40;3.20;;;20.10;43.80;;;-147.95;100.00;61948.03;5011867;28;20852;-74
2023/06/13 07:50:17;;;;;;;2.90;2.70;;;20.20;43.90;;;-147.95;100.00;61948.03;5028229;28;20462;-74
2023/06/13 07:52:44;;;;;;;3.10;2.73;;;20.20;43.50;;;-147.95;100.00;61948.03;5029899;28;20550;-74
2023/06/13 07:55:12;;;;;;;4.40;3.50;;;20.10;42.60;;;-147.95;100.00;61948.03;5029371;28;20462;-76
2023/06/13 07:57:40;;;;;;;3.00;2.80;;;20.10;41.80;;;-147.95;100.00;61948.03;5028165;28;20564;-75
2023/06/13 08:00:16;;;;;;;2.63;2.43;;;20.30;42.00;;;-147.95;100.00;61948.03;5029456;28;20470;-74
2023/06/13 08:02:43;;;;;;;2.83;2.60;;;20.50;42.10;;;-147.95;100.00;61948.03;5028779;28;20541;-75
2023/06/13 08:05:11;;;;;;;7.10;3.23;;;20.60;41.70;;;-147.95;100.00;61948.03;5029190;28;20466;-73
2023/06/13 08:07:38;;;;;;;3.07;2.77;;;20.60;41.20;;;-147.95;100.00;61948.03;5029150;28;20491;-74
2023/06/13 08:10:06;;;;;;;2.90;2.50;;;20.70;42.00;;;-147.95;100.00;61948.03;5011873;28;20455;-75
2023/06/13 08:12:34;;;;;;;2.73;2.53;;;20.70;41.80;;;-147.95;100.00;61948.03;5011935;28;20637;-75
2023/06/13 08:15:02;;;;;;;2.40;2.20;;;20.60;41.10;;;-147.95;100.00;61948.03;5022347;28;20454;-73
2023/06/13 08:17:31;;;;;;;3.23;2.63;;;20.60;40.50;;;-147.95;100.00;61948.03;5028384;28;20462;-74
2023/06/13 08:19:58;;;;;;;2.77;2.57;;;20.60;40.10;;;-147.95;100.00;61948.03;5028827;28;20463;-72
2023/06/13 08:22:27;;;;;;;3.63;3.37;;;20.60;40.10;;;-147.95;100.00;61948.03;5011421;28;20557;-75
2023/06/13 08:24:55;;;;;;;3.00;2.57;;;20.60;40.20;;;-147.95;100.00;61948.03;5011834;28;20462;-73
2023/06/13 08:27:22;;;;;;;4.43;2.63;;;20.50;40.70;;;-147.95;100.00;61948.03;5026753;28;20647;-76
2023/06/13 08:29:50;;;;;;;2.77;2.50;;;20.40;40.50;;;-147.95;100.00;61948.03;5011396;28;20461;-77
2023/06/13 08:32:17;;;;;;;3.20;2.90;;;20.60;40.70;;;-147.95;100.00;61948.03;5028307;28;20460;-74
2023/06/13 08:34:47;;;;;;;2.77;2.53;;;20.80;40.90;;;-147.95;100.00;61948.03;5027636;28;20481;-75
2023/06/13 08:37:15;;;;;;;6.03;2.93;;;21.10;40.80;;;-147.95;100.00;61948.03;5024092;28;20542;-75
2023/06/13 08:39:42;;;;;;;5.87;2.70;;;21.20;40.70;;;-147.95;100.00;61948.03;5030908;28;20566;-74
2023/06/13 08:42:10;;;;;;;3.00;2.70;;;21.20;41.20;;;-147.95;100.00;61948.03;5018692;28;20463;-74
2023/06/13 08:44:38;;;;;;;3.50;3.23;;;21.20;41.00;;;-147.95;100.00;61948.03;5028945;28;20470;-74
2023/06/13 08:47:06;;;;;;;2.63;2.40;;;21.20;40.90;;;-147.95;100.00;61948.03;5026357;28;20472;-75
2023/06/13 08:49:33;;;;;;;3.60;2.77;;;21.00;41.00;;;-147.95;100.00;61948.03;5011786;28;21322;-75
2023/06/13 08:52:04;;;;;;;4.13;2.83;;;20.80;41.40;;;-147.95;100.00;61948.03;5014908;28;20964;-73
2023/06/13 08:54:36;;;;;;;3.90;2.67;;;20.90;41.20;;;-147.95;100.00;61948.03;5036085;28;20824;-73
2023/06/13 08:57:07;;;;;;;3.00;2.80;;;20.80;40.80;;;-147.95;100.00;61948.03;5016252;28;20452;-74
2023/06/13 08:59:38;;;;;;;3.40;3.10;;;20.90;41.30;;;-147.95;100.00;61948.03;5021149;28;20914;-73
2023/06/13 09:02:06;;;;;;;6.93;3.10;;;21.00;41.90;;;-147.95;100.00;61948.03;5028578;28;20451;-74
2023/06/13 09:04:35;;;;;;;2.67;2.47;;;21.00;41.70;;;-147.95;100.00;61948.03;5035964;28;20468;-76
2023/06/13 09:07:06;;;;;;;3.93;3.20;;;21.00;41.10;;;-147.95;100.00;61948.03;5025672;28;20475;-74
2023/06/13 09:09:35;;;;;;;3.33;3.03;;;21.20;41.40;;;-147.95;100.00;61948.03;5031850;28;20452;-74
2023/06/13 09:12:06;;;;;;;3.10;2.80;;;21.20;41.00;;;-147.95;100.00;61948.03;5021709;28;20463;-74
2023/06/13 09:14:33;;;;;;;3.47;2.90;;;21.40;41.30;;;-147.95;100.00;61948.03;5028859;28;21111;-74
2023/06/13 09:17:01;;;;;;;3.03;2.73;;;21.50;41.00;;;-147.95;100.00;61948.03;5019128;28;20455;-74
2023/06/13 09:19:29;;;;;;;3.50;3.20;;;21.50;41.50;;;-147.95;100.00;61948.03;5010820;28;20974;-75
2023/06/13 09:21:56;;;;;;;5.10;3.40;;;21.50;41.40;;;-147.95;100.00;61948.03;5026051;28;20470;-75
2023/06/13 09:24:26;;;;;;;2.30;2.10;;;21.60;41.60;;;-147.95;100.00;61948.03;5028614;28;20464;-74
2023/06/13 09:26:53;;;;;;;3.93;2.80;;;21.70;41.00;;;-147.95;100.00;61948.03;5025408;28;20480;-75
2023/06/13 09:29:20;;;;;;;2.93;2.70;;;21.80;41.20;;;-147.95;100.00;61948.03;5026947;28;20456;-75
2023/06/13 09:31:47;;;;;;;4.00;2.80;;;21.90;41.20;;;-147.95;100.00;61948.03;5025969;28;20463;-75
2023/06/13 09:34:15;;;;;;;3.00;2.70;;;22.10;40.70;;;-147.95;100.00;61948.03;5026373;28;20555;-75
2023/06/13 09:36:44;;;;;;;4.03;2.63;;;22.00;40.30;;;-147.95;100.00;61948.03;5026853;28;20554;-74
2023/06/13 09:39:12;;;;;;;3.17;2.50;;;21.90;40.30;;;-147.95;100.00;61948.03;5025962;28;20489;-74
2023/06/13 09:41:42;;;;;;;4.20;3.80;;;21.80;40.10;;;-147.95;100.00;61948.03;4993127;28;20474;-73
2023/06/13 09:44:11;;;;;;;4.40;4.00;;;21.60;39.80;;;-147.95;100.00;61948.03;5010005;28;20530;-76
2023/06/13 09:46:38;;;;;;;8.63;6.27;;;21.60;40.30;;;-147.95;100.00;61948.03;5008913;28;20465;-74
2023/06/13 09:49:07;;;;;;;4.00;3.37;;;21.60;39.80;;;-147.95;100.00;61948.03;5026710;28;20553;-74
2023/06/13 09:51:34;;;;;;;3.70;3.23;;;21.60;39.30;;;-147.95;100.00;61948.03;5026677;28;20559;-75
2023/06/13 09:54:01;;;;;;;2.47;2.27;;;21.50;39.30;;;-147.95;100.00;61948.03;5019872;28;20447;-74
2023/06/13 09:56:29;;;;;;;4.20;2.87;;;21.60;39.70;;;-147.95;100.00;61948.03;5026797;28;20455;-74
2023/06/13 09:58:57;;;;;;;3.10;2.80;;;21.70;39.50;;;-147.95;100.00;61948.03;5009221;28;20454;-76
2023/06/13 10:01:24;;;;;;;3.13;2.83;;;21.50;39.60;;;-147.95;100.00;61948.03;5025557;28;20605;-75
2023/06/13 10:03:52;;;;;;;3.30;2.53;;;21.80;39.80;;;-147.95;100.00;61948.03;5009711;28;20594;-75
2023/06/13 10:06:19;;;;;;;3.10;2.90;;;21.70;39.80;;;-147.95;100.00;61948.03;5025556;28;20922;-74